sensor_id;sensor_type;location;lat;lon;timestamp;temperature;humidity
47090;DHT22;32840;52.516;13.294;2023-06-19T00:00:37;20.80;99.90
47090;DHT22;32840;52.516;13.294;2023-06-19T00:03:24;20.80;99.90
47090;DHT22;32840;52.516;13.294;2023-06-19T00:06:09;20.80;99.90
47090;DHT22;32840;52.516;13.294;2023-06-19T00:08:55;20.80;99.90
47090;DHT22;32840;52.516;13.294;2023-06-19T00:11:39;20.80;99.90
47090;DHT22;32840;52.516;13.294;2023-06-19T00:14:25;20.80;99.90
47090;DHT22;32840;52.516;13.294;2023-06-19T00:17:10;20.80;99.90
47090;DHT22;32840;52.516;13.294;2023-06-19T00:19:58;20.70;99.90
47090;DHT22;32840;52.516;13.294;2023-06-19T00:22:42;20.70;99.90
47090;DHT22;32840;52.516;13.294;2023-06-19T00:25:27;20.70;99.90
47090;DHT22;32840;52.516;13.294;2023-06-19T00:28:15;20.70;99.90
47090;DHT22;32840;52.516;13.294;2023-06-19T00:31:04;20.70;99.90
47090;DHT22;32840;52.516;13.294;2023-06-19T00:33:51;20.70;99.90
47090;DHT22;32840;52.516;13.294;2023-06-19T00:36:36;20.70;99.90
47090;DHT22;32840;52.516;13.294;2023-06-19T00:39:25;20.70;99.90
47090;DHT22;32840;52.516;13.294;2023-06-19T00:42:10;20.70;99.90
47090;DHT22;32840;52.516;13.294;2023-06-19T00:44:55;20.70;99.90
47090;DHT22;32840;52.516;13.294;2023-06-19T00:47:40;20.70;99.90
47090;DHT22;32840;52.516;13.294;2023-06-19T00:50:25;20.70;99.90
47090;DHT22;32840;52.516;13.294;2023-06-19T00:53:13;20.70;99.90
47090;DHT22;32840;52.516;13.294;2023-06-19T00:55:59;20.70;99.90
47090;DHT22;32840;52.516;13.294;2023-06-19T00:58:44;20.80;99.90
47090;DHT22;32840;52.516;13.294;2023-06-19T01:01:29;20.80;99.90
47090;DHT22;32840;52.516;13.294;2023-06-19T01:04:17;20.80;99.90
47090;DHT22;32840;52.516;13.294;2023-06-19T01:07:12;20.80;99.90
47090;DHT22;32840;52.516;13.294;2023-06-19T01:10:02;20.70;99.90
47090;DHT22;32840;52.516;13.294;2023-06-19T01:12:56;20.70;99.90
47090;DHT22;32840;52.516;13.294;2023-06-19T01:15:44;20.70;99.90
47090;DHT22;32840;52.516;13.294;2023-06-19T01:18:33;20.60;99.90
47090;DHT22;32840;52.516;13.294;2023-06-19T01:21:20;20.50;99.90
47090;DHT22;32840;52.516;13.294;2023-06-19T01:24:05;20.50;99.90
47090;DHT22;32840;52.516;13.294;2023-06-19T01:26:51;20.60;99.90
47090;DHT22;32840;52.516;13.294;2023-06-19T01:29:37;20.60;99.90
47090;DHT22;32840;52.516;13.294;2023-06-19T01:32:52;20.60;99.90
47090;DHT22;32840;52.516;13.294;2023-06-19T01:35:40;20.50;99.90
47090;DHT22;32840;52.516;13.294;2023-06-19T01:38:29;20.50;99.90
47090;DHT22;32840;52.516;13.294;2023-06-19T01:41:16;20.50;99.90
47090;DHT22;32840;52.516;13.294;2023-06-19T01:44:03;20.50;99.90
47090;DHT22;32840;52.516;13.294;2023-06-19T01:46:49;20.50;99.90
47090;DHT22;32840;52.516;13.294;2023-06-19T01:49:37;20.40;99.90
47090;DHT22;32840;52.516;13.294;2023-06-19T01:52:24;20.40;99.90
47090;DHT22;32840;52.516;13.294;2023-06-19T01:55:12;20.50;99.90
47090;DHT22;32840;52.516;13.294;2023-06-19T01:57:57;20.50;99.90
47090;DHT22;32840;52.516;13.294;2023-06-19T02:00:42;20.50;99.90
47090;DHT22;32840;52.516;13.294;2023-06-19T02:03:27;20.50;99.90
47090;DHT22;32840;52.516;13.294;2023-06-19T02:06:12;20.50;99.90
47090;DHT22;32840;52.516;13.294;2023-06-19T02:08:57;20.40;99.90
47090;DHT22;32840;52.516;13.294;2023-06-19T02:11:42;20.50;99.90
47090;DHT22;32840;52.516;13.294;2023-06-19T02:14:30;20.50;99.90
47090;DHT22;32840;52.516;13.294;2023-06-19T02:17:21;20.50;99.90
47090;DHT22;32840;52.516;13.294;2023-06-19T02:20:09;20.40;99.90
47090;DHT22;32840;52.516;13.294;2023-06-19T02:22:57;20.40;99.90
47090;DHT22;32840;52.516;13.294;2023-06-19T02:25:42;20.40;99.90
47090;DHT22;32840;52.516;13.294;2023-06-19T02:28:27;20.40;99.90
47090;DHT22;32840;52.516;13.294;2023-06-19T02:31:11;20.40;99.90
47090;DHT22;32840;52.516;13.294;2023-06-19T02:33:59;20.40;99.90
47090;DHT22;32840;52.516;13.294;2023-06-19T02:36:44;20.30;99.90
47090;DHT22;32840;52.516;13.294;2023-06-19T02:39:33;20.40;99.90
47090;DHT22;32840;52.516;13.294;2023-06-19T02:42:20;20.40;99.90
47090;DHT22;32840;52.516;13.294;2023-06-19T02:45:07;20.40;99.90
47090;DHT22;32840;52.516;13.294;2023-06-19T02:47:53;20.30;99.90
47090;DHT22;32840;52.516;13.294;2023-06-19T02:50:38;20.30;99.90
47090;DHT22;32840;52.516;13.294;2023-06-19T02:53:23;20.30;99.90
47090;DHT22;32840;52.516;13.294;2023-06-19T02:56:11;20.20;99.90
47090;DHT22;32840;52.516;13.294;2023-06-19T02:58:57;20.20;99.90
47090;DHT22;32840;52.516;13.294;2023-06-19T03:01:42;20.30;99.90
47090;DHT22;32840;52.516;13.294;2023-06-19T03:04:28;20.20;99.90
47090;DHT22;32840;52.516;13.294;2023-06-19T03:07:14;20.30;99.90
47090;DHT22;32840;52.516;13.294;2023-06-19T03:09:58;20.20;99.90
47090;DHT22;32840;52.516;13.294;2023-06-19T03:12:43;20.20;99.90
47090;DHT22;32840;52.516;13.294;2023-06-19T03:15:28;20.10;99.90
47090;DHT22;32840;52.516;13.294;2023-06-19T03:18:15;20.20;99.90
47090;DHT22;32840;52.516;13.294;2023-06-19T03:21:00;20.20;99.90
47090;DHT22;32840;52.516;13.294;2023-06-19T03:23:48;20.20;99.90
47090;DHT22;32840;52.516;13.294;2023-06-19T03:26:34;20.20;99.90
47090;DHT22;32840;52.516;13.294;2023-06-19T03:29:20;20.30;99.90
47090;DHT22;32840;52.516;13.294;2023-06-19T03:32:05;20.30;99.90
47090;DHT22;32840;52.516;13.294;2023-06-19T03:34:53;20.40;99.90
47090;DHT22;32840;52.516;13.294;2023-06-19T03:37:37;20.40;99.90
47090;DHT22;32840;52.516;13.294;2023-06-19T03:40:22;20.40;99.90
47090;DHT22;32840;52.516;13.294;2023-06-19T03:43:10;20.40;99.90
47090;DHT22;32840;52.516;13.294;2023-06-19T03:46:01;20.40;99.90
47090;DHT22;32840;52.516;13.294;2023-06-19T03:48:49;20.40;99.90
47090;DHT22;32840;52.516;13.294;2023-06-19T03:51:34;20.50;99.90
47090;DHT22;32840;52.516;13.294;2023-06-19T03:54:20;20.50;99.90
47090;DHT22;32840;52.516;13.294;2023-06-19T03:57:05;20.50;99.90
47090;DHT22;32840;52.516;13.294;2023-06-19T03:59:56;20.50;99.90
47090;DHT22;32840;52.516;13.294;2023-06-19T04:02:42;20.50;99.90
47090;DHT22;32840;52.516;13.294;2023-06-19T04:05:30;20.50;99.90
47090;DHT22;32840;52.516;13.294;2023-06-19T04:08:18;20.50;99.90
47090;DHT22;32840;52.516;13.294;2023-06-19T04:11:03;20.50;99.90
47090;DHT22;32840;52.516;13.294;2023-06-19T04:13:48;20.50;99.90
47090;DHT22;32840;52.516;13.294;2023-06-19T04:16:35;20.50;99.90
47090;DHT22;32840;52.516;13.294;2023-06-19T04:19:20;20.50;99.90
47090;DHT22;32840;52.516;13.294;2023-06-19T04:22:05;20.50;99.90
47090;DHT22;32840;52.516;13.294;2023-06-19T04:24:50;20.50;99.90
47090;DHT22;32840;52.516;13.294;2023-06-19T04:27:35;20.60;99.90
47090;DHT22;32840;52.516;13.294;2023-06-19T04:30:20;20.60;99.90
47090;DHT22;32840;52.516;13.294;2023-06-19T04:33:07;20.60;99.90
47090;DHT22;32840;52.516;13.294;2023-06-19T04:35:55;20.60;99.90
47090;DHT22;32840;52.516;13.294;2023-06-19T04:38:41;20.60;99.90
47090;DHT22;32840;52.516;13.294;2023-06-19T04:41:36;20.60;99.90
47090;DHT22;32840;52.516;13.294;2023-06-19T04:44:22;20.60;99.90
47090;DHT22;32840;52.516;13.294;2023-06-19T04:47:07;20.70;99.90
47090;DHT22;32840;52.516;13.294;2023-06-19T04:50:40;20.80;99.90
47090;DHT22;32840;52.516;13.294;2023-06-19T04:53:46;20.80;99.90
47090;DHT22;32840;52.516;13.294;2023-06-19T04:56:37;20.80;99.90
47090;DHT22;32840;52.516;13.294;2023-06-19T04:59:23;20.80;99.90
47090;DHT22;32840;52.516;13.294;2023-06-19T05:02:08;20.70;99.90
47090;DHT22;32840;52.516;13.294;2023-06-19T05:04:54;20.80;99.90
47090;DHT22;32840;52.516;13.294;2023-06-19T05:07:41;20.80;99.90
47090;DHT22;32840;52.516;13.294;2023-06-19T05:10:26;20.80;99.90
47090;DHT22;32840;52.516;13.294;2023-06-19T05:13:10;20.80;99.90
47090;DHT22;32840;52.516;13.294;2023-06-19T05:15:55;20.80;99.90
47090;DHT22;32840;52.516;13.294;2023-06-19T05:18:42;20.80;99.90
47090;DHT22;32840;52.516;13.294;2023-06-19T05:21:28;20.80;99.90
47090;DHT22;32840;52.516;13.294;2023-06-19T05:24:13;20.80;99.90
47090;DHT22;32840;52.516;13.294;2023-06-19T05:26:59;20.80;99.90
47090;DHT22;32840;52.516;13.294;2023-06-19T05:29:46;20.90;99.90
47090;DHT22;32840;52.516;13.294;2023-06-19T05:32:54;20.90;99.90
47090;DHT22;32840;52.516;13.294;2023-06-19T05:35:38;20.90;99.90
47090;DHT22;32840;52.516;13.294;2023-06-19T05:38:25;21.00;99.90
47090;DHT22;32840;52.516;13.294;2023-06-19T05:41:11;21.10;99.90
47090;DHT22;32840;52.516;13.294;2023-06-19T05:43:58;21.00;99.90
47090;DHT22;32840;52.516;13.294;2023-06-19T05:46:43;21.10;99.90
47090;DHT22;32840;52.516;13.294;2023-06-19T05:49:27;21.00;99.90
47090;DHT22;32840;52.516;13.294;2023-06-19T05:52:12;21.00;99.90
47090;DHT22;32840;52.516;13.294;2023-06-19T05:55:00;21.10;99.90
47090;DHT22;32840;52.516;13.294;2023-06-19T05:57:46;21.20;99.90
47090;DHT22;32840;52.516;13.294;2023-06-19T06:00:33;21.20;99.90
47090;DHT22;32840;52.516;13.294;2023-06-19T06:03:19;21.30;99.90
47090;DHT22;32840;52.516;13.294;2023-06-19T06:06:04;21.40;99.90
47090;DHT22;32840;52.516;13.294;2023-06-19T06:08:50;21.30;99.90
47090;DHT22;32840;52.516;13.294;2023-06-19T06:11:39;21.40;99.90
47090;DHT22;32840;52.516;13.294;2023-06-19T06:14:26;21.40;99.90
47090;DHT22;32840;52.516;13.294;2023-06-19T06:28:14;21.50;99.90
47090;DHT22;32840;52.516;13.294;2023-06-19T06:31:00;21.50;99.90
47090;DHT22;32840;52.516;13.294;2023-06-19T06:33:44;21.60;99.90
47090;DHT22;32840;52.516;13.294;2023-06-19T06:36:32;21.60;99.90
47090;DHT22;32840;52.516;13.294;2023-06-19T06:39:20;21.70;99.90
47090;DHT22;32840;52.516;13.294;2023-06-19T06:42:05;21.70;99.90
47090;DHT22;32840;52.516;13.294;2023-06-19T06:44:50;21.70;99.90
47090;DHT22;32840;52.516;13.294;2023-06-19T06:47:40;21.70;99.90
47090;DHT22;32840;52.516;13.294;2023-06-19T06:50:24;21.80;99.90
47090;DHT22;32840;52.516;13.294;2023-06-19T06:53:11;21.80;99.90
47090;DHT22;32840;52.516;13.294;2023-06-19T06:55:56;21.90;99.90
47090;DHT22;32840;52.516;13.294;2023-06-19T06:58:43;21.90;99.90
47090;DHT22;32840;52.516;13.294;2023-06-19T07:01:30;22.00;99.90
47090;DHT22;32840;52.516;13.294;2023-06-19T07:04:17;22.00;99.90
47090;DHT22;32840;52.516;13.294;2023-06-19T07:07:05;22.10;99.90
47090;DHT22;32840;52.516;13.294;2023-06-19T07:09:54;22.20;99.90
47090;DHT22;32840;52.516;13.294;2023-06-19T07:12:47;22.10;99.90
47090;DHT22;32840;52.516;13.294;2023-06-19T07:15:36;22.20;99.90
47090;DHT22;32840;52.516;13.294;2023-06-19T07:18:21;22.30;99.90
47090;DHT22;32840;52.516;13.294;2023-06-19T07:21:12;22.40;99.90
47090;DHT22;32840;52.516;13.294;2023-06-19T07:23:57;22.40;99.90
47090;DHT22;32840;52.516;13.294;2023-06-19T07:26:47;22.50;99.90
47090;DHT22;32840;52.516;13.294;2023-06-19T07:29:34;22.60;99.90
47090;DHT22;32840;52.516;13.294;2023-06-19T07:32:19;22.70;99.90
47090;DHT22;32840;52.516;13.294;2023-06-19T07:35:05;22.80;99.90
47090;DHT22;32840;52.516;13.294;2023-06-19T07:37:50;23.00;99.90
47090;DHT22;32840;52.516;13.294;2023-06-19T07:40:37;23.00;99.90
47090;DHT22;32840;52.516;13.294;2023-06-19T07:43:24;23.20;99.90
47090;DHT22;32840;52.516;13.294;2023-06-19T07:46:09;23.40;99.90
47090;DHT22;32840;52.516;13.294;2023-06-19T07:48:56;23.40;99.40
47090;DHT22;32840;52.516;13.294;2023-06-19T07:51:40;23.40;98.80
47090;DHT22;32840;52.516;13.294;2023-06-19T07:54:25;23.50;98.60
47090;DHT22;32840;52.516;13.294;2023-06-19T07:57:11;23.50;98.70
47090;DHT22;32840;52.516;13.294;2023-06-19T08:00:03;23.60;98.80
47090;DHT22;32840;52.516;13.294;2023-06-19T08:02:53;23.50;98.40
47090;DHT22;32840;52.516;13.294;2023-06-19T08:05:40;23.60;98.50
47090;DHT22;32840;52.516;13.294;2023-06-19T08:08:24;23.60;98.50
47090;DHT22;32840;52.516;13.294;2023-06-19T08:11:10;23.60;98.80
47090;DHT22;32840;52.516;13.294;2023-06-19T08:13:55;23.60;99.20
47090;DHT22;32840;52.516;13.294;2023-06-19T08:16:40;23.70;98.40
47090;DHT22;32840;52.516;13.294;2023-06-19T08:19:28;23.80;98.20
47090;DHT22;32840;52.516;13.294;2023-06-19T08:22:12;23.80;98.00
47090;DHT22;32840;52.516;13.294;2023-06-19T08:24:57;23.80;97.80
47090;DHT22;32840;52.516;13.294;2023-06-19T08:27:43;23.80;97.30
47090;DHT22;32840;52.516;13.294;2023-06-19T08:30:30;23.80;96.90
47090;DHT22;32840;52.516;13.294;2023-06-19T08:33:17;23.80;97.30
47090;DHT22;32840;52.516;13.294;2023-06-19T08:36:05;23.80;97.30
47090;DHT22;32840;52.516;13.294;2023-06-19T08:38:50;23.70;97.20
47090;DHT22;32840;52.516;13.294;2023-06-19T08:41:37;23.70;97.70
47090;DHT22;32840;52.516;13.294;2023-06-19T08:44:22;23.50;98.70
47090;DHT22;32840;52.516;13.294;2023-06-19T08:47:09;23.50;97.70
47090;DHT22;32840;52.516;13.294;2023-06-19T08:49:54;23.50;97.70
47090;DHT22;32840;52.516;13.294;2023-06-19T08:52:39;23.50;97.50
47090;DHT22;32840;52.516;13.294;2023-06-19T08:55:28;23.50;98.00
47090;DHT22;32840;52.516;13.294;2023-06-19T08:58:21;23.60;97.80
47090;DHT22;32840;52.516;13.294;2023-06-19T09:01:05;23.70;97.10
47090;DHT22;32840;52.516;13.294;2023-06-19T09:03:50;23.80;97.10
47090;DHT22;32840;52.516;13.294;2023-06-19T09:06:46;23.90;97.10
47090;DHT22;32840;52.516;13.294;2023-06-19T09:09:43;24.00;97.90
47090;DHT22;32840;52.516;13.294;2023-06-19T09:12:30;24.00;97.00
47090;DHT22;32840;52.516;13.294;2023-06-19T09:15:22;24.10;97.00
47090;DHT22;32840;52.516;13.294;2023-06-19T09:18:09;24.10;97.10
47090;DHT22;32840;52.516;13.294;2023-06-19T09:20:54;24.00;97.90
47090;DHT22;32840;52.516;13.294;2023-06-19T09:23:39;24.00;97.10
47090;DHT22;32840;52.516;13.294;2023-06-19T09:26:25;24.00;97.90
47090;DHT22;32840;52.516;13.294;2023-06-19T09:29:14;24.00;97.40
47090;DHT22;32840;52.516;13.294;2023-06-19T09:32:31;24.00;98.70
47090;DHT22;32840;52.516;13.294;2023-06-19T09:35:19;23.90;99.40
47090;DHT22;32840;52.516;13.294;2023-06-19T09:38:10;23.80;99.90
47090;DHT22;32840;52.516;13.294;2023-06-19T09:40:58;23.90;98.10
47090;DHT22;32840;52.516;13.294;2023-06-19T09:43:46;23.90;99.50
47090;DHT22;32840;52.516;13.294;2023-06-19T09:46:37;23.90;99.70
47090;DHT22;32840;52.516;13.294;2023-06-19T09:49:29;24.10;97.80
47090;DHT22;32840;52.516;13.294;2023-06-19T09:52:17;24.20;97.70
47090;DHT22;32840;52.516;13.294;2023-06-19T09:55:06;24.30;97.10
47090;DHT22;32840;52.516;13.294;2023-06-19T09:57:54;24.40;97.30
47090;DHT22;32840;52.516;13.294;2023-06-19T10:00:43;24.40;97.10
47090;DHT22;32840;52.516;13.294;2023-06-19T10:03:33;24.50;96.60
47090;DHT22;32840;52.516;13.294;2023-06-19T10:06:18;24.60;96.90
47090;DHT22;32840;52.516;13.294;2023-06-19T10:09:08;24.70;97.20
47090;DHT22;32840;52.516;13.294;2023-06-19T10:11:54;24.70;96.40
47090;DHT22;32840;52.516;13.294;2023-06-19T10:14:47;24.80;95.90
47090;DHT22;32840;52.516;13.294;2023-06-19T10:17:34;24.80;96.30
47090;DHT22;32840;52.516;13.294;2023-06-19T10:20:29;24.90;96.00
47090;DHT22;32840;52.516;13.294;2023-06-19T10:23:19;25.00;95.80
47090;DHT22;32840;52.516;13.294;2023-06-19T10:26:15;25.00;95.20
47090;DHT22;32840;52.516;13.294;2023-06-19T10:29:00;24.90;96.40
47090;DHT22;32840;52.516;13.294;2023-06-19T10:31:45;24.80;97.50
47090;DHT22;32840;52.516;13.294;2023-06-19T10:34:37;24.80;98.40
47090;DHT22;32840;52.516;13.294;2023-06-19T10:37:33;24.80;98.20
47090;DHT22;32840;52.516;13.294;2023-06-19T10:40:18;24.80;98.60
47090;DHT22;32840;52.516;13.294;2023-06-19T10:43:03;24.80;98.20
47090;DHT22;32840;52.516;13.294;2023-06-19T10:45:48;24.80;97.20
47090;DHT22;32840;52.516;13.294;2023-06-19T10:48:33;24.80;97.10
47090;DHT22;32840;52.516;13.294;2023-06-19T10:51:19;24.80;96.80
47090;DHT22;32840;52.516;13.294;2023-06-19T10:54:07;24.90;95.80
47090;DHT22;32840;52.516;13.294;2023-06-19T10:56:52;24.80;95.80
47090;DHT22;32840;52.516;13.294;2023-06-19T10:59:40;24.90;95.80
47090;DHT22;32840;52.516;13.294;2023-06-19T11:02:26;24.90;95.30
47090;DHT22;32840;52.516;13.294;2023-06-19T11:05:12;25.00;95.20
47090;DHT22;32840;52.516;13.294;2023-06-19T11:07:58;25.10;94.30
47090;DHT22;32840;52.516;13.294;2023-06-19T11:10:43;25.20;93.70
47090;DHT22;32840;52.516;13.294;2023-06-19T11:13:30;25.20;93.80
47090;DHT22;32840;52.516;13.294;2023-06-19T11:16:15;25.10;93.20
47090;DHT22;32840;52.516;13.294;2023-06-19T11:19:01;25.20;93.40
47090;DHT22;32840;52.516;13.294;2023-06-19T11:21:51;25.20;93.40
47090;DHT22;32840;52.516;13.294;2023-06-19T11:24:36;25.40;92.80
47090;DHT22;32840;52.516;13.294;2023-06-19T11:27:23;25.50;92.90
47090;DHT22;32840;52.516;13.294;2023-06-19T11:30:11;25.70;92.80
47090;DHT22;32840;52.516;13.294;2023-06-19T11:32:56;25.80;92.40
47090;DHT22;32840;52.516;13.294;2023-06-19T11:35:48;25.80;92.20
47090;DHT22;32840;52.516;13.294;2023-06-19T11:38:36;25.80;92.30
47090;DHT22;32840;52.516;13.294;2023-06-19T11:41:27;25.80;92.40
47090;DHT22;32840;52.516;13.294;2023-06-19T11:44:13;25.80;92.10
47090;DHT22;32840;52.516;13.294;2023-06-19T11:46:57;25.80;92.20
47090;DHT22;32840;52.516;13.294;2023-06-19T11:49:47;25.90;91.60
47090;DHT22;32840;52.516;13.294;2023-06-19T11:52:33;26.00;91.50
47090;DHT22;32840;52.516;13.294;2023-06-19T11:55:17;26.20;90.50
47090;DHT22;32840;52.516;13.294;2023-06-19T11:58:04;26.20;89.20
47090;DHT22;32840;52.516;13.294;2023-06-19T12:00:49;26.30;88.80
47090;DHT22;32840;52.516;13.294;2023-06-19T12:03:39;26.30;86.70
47090;DHT22;32840;52.516;13.294;2023-06-19T12:06:27;26.40;85.70
47090;DHT22;32840;52.516;13.294;2023-06-19T12:09:15;26.40;85.10
47090;DHT22;32840;52.516;13.294;2023-06-19T12:12:01;26.50;82.70
47090;DHT22;32840;52.516;13.294;2023-06-19T12:14:45;26.70;81.60
47090;DHT22;32840;52.516;13.294;2023-06-19T12:17:31;26.70;81.70
47090;DHT22;32840;52.516;13.294;2023-06-19T12:20:16;26.80;80.50
47090;DHT22;32840;52.516;13.294;2023-06-19T12:23:00;26.80;80.40
47090;DHT22;32840;52.516;13.294;2023-06-19T12:25:46;26.90;80.50
47090;DHT22;32840;52.516;13.294;2023-06-19T12:28:31;26.90;81.00
47090;DHT22;32840;52.516;13.294;2023-06-19T12:31:19;27.00;79.40
47090;DHT22;32840;52.516;13.294;2023-06-19T12:34:07;27.00;79.00
47090;DHT22;32840;52.516;13.294;2023-06-19T12:36:53;26.90;78.30
47090;DHT22;32840;52.516;13.294;2023-06-19T12:39:40;26.80;78.10
47090;DHT22;32840;52.516;13.294;2023-06-19T12:42:25;26.80;77.70
47090;DHT22;32840;52.516;13.294;2023-06-19T12:45:10;26.70;77.70
47090;DHT22;32840;52.516;13.294;2023-06-19T12:47:55;26.70;78.00
47090;DHT22;32840;52.516;13.294;2023-06-19T12:50:40;26.70;77.50
47090;DHT22;32840;52.516;13.294;2023-06-19T12:53:25;26.70;78.90
47090;DHT22;32840;52.516;13.294;2023-06-19T12:56:13;26.60;78.40
47090;DHT22;32840;52.516;13.294;2023-06-19T12:58:58;26.70;79.20
47090;DHT22;32840;52.516;13.294;2023-06-19T13:01:43;26.90;79.70
47090;DHT22;32840;52.516;13.294;2023-06-19T13:04:29;27.00;78.80
47090;DHT22;32840;52.516;13.294;2023-06-19T13:07:14;27.10;76.70
47090;DHT22;32840;52.516;13.294;2023-06-19T13:10:01;27.30;76.40
47090;DHT22;32840;52.516;13.294;2023-06-19T13:12:45;27.30;76.40
47090;DHT22;32840;52.516;13.294;2023-06-19T13:15:32;27.40;75.00
47090;DHT22;32840;52.516;13.294;2023-06-19T13:18:19;27.60;75.90
47090;DHT22;32840;52.516;13.294;2023-06-19T13:21:07;27.60;75.30
47090;DHT22;32840;52.516;13.294;2023-06-19T13:23:52;27.60;73.20
47090;DHT22;32840;52.516;13.294;2023-06-19T13:26:39;27.50;73.60
47090;DHT22;32840;52.516;13.294;2023-06-19T13:29:25;27.50;73.20
47090;DHT22;32840;52.516;13.294;2023-06-19T13:32:10;27.30;74.00
47090;DHT22;32840;52.516;13.294;2023-06-19T13:34:55;27.30;75.00
47090;DHT22;32840;52.516;13.294;2023-06-19T13:37:40;27.20;75.20
47090;DHT22;32840;52.516;13.294;2023-06-19T13:40:25;27.30;76.00
47090;DHT22;32840;52.516;13.294;2023-06-19T13:43:10;27.30;75.40
47090;DHT22;32840;52.516;13.294;2023-06-19T13:45:55;27.30;75.70
47090;DHT22;32840;52.516;13.294;2023-06-19T13:48:41;27.30;75.40
47090;DHT22;32840;52.516;13.294;2023-06-19T13:51:27;27.30;76.30
47090;DHT22;32840;52.516;13.294;2023-06-19T13:54:12;27.30;77.10
47090;DHT22;32840;52.516;13.294;2023-06-19T13:56:57;27.30;76.90
47090;DHT22;32840;52.516;13.294;2023-06-19T13:59:46;27.30;75.90
47090;DHT22;32840;52.516;13.294;2023-06-19T14:02:33;27.20;76.10
47090;DHT22;32840;52.516;13.294;2023-06-19T14:05:17;27.20;76.10
47090;DHT22;32840;52.516;13.294;2023-06-19T14:08:02;27.20;76.20
47090;DHT22;32840;52.516;13.294;2023-06-19T14:10:48;27.20;76.60
47090;DHT22;32840;52.516;13.294;2023-06-19T14:13:33;27.20;76.80
47090;DHT22;32840;52.516;13.294;2023-06-19T14:16:18;27.20;77.60
47090;DHT22;32840;52.516;13.294;2023-06-19T14:19:03;27.20;76.90
47090;DHT22;32840;52.516;13.294;2023-06-19T14:21:48;27.20;76.50
47090;DHT22;32840;52.516;13.294;2023-06-19T14:24:34;27.20;76.40
47090;DHT22;32840;52.516;13.294;2023-06-19T14:27:19;27.30;75.20
47090;DHT22;32840;52.516;13.294;2023-06-19T14:30:06;27.20;74.30
47090;DHT22;32840;52.516;13.294;2023-06-19T14:32:52;27.30;73.30
47090;DHT22;32840;52.516;13.294;2023-06-19T14:35:37;27.30;73.80
47090;DHT22;32840;52.516;13.294;2023-06-19T14:38:22;27.30;74.00
47090;DHT22;32840;52.516;13.294;2023-06-19T14:41:12;27.40;73.70
47090;DHT22;32840;52.516;13.294;2023-06-19T14:43:57;27.30;73.70
47090;DHT22;32840;52.516;13.294;2023-06-19T14:46:43;27.40;74.10
47090;DHT22;32840;52.516;13.294;2023-06-19T14:49:29;27.40;74.70
47090;DHT22;32840;52.516;13.294;2023-06-19T14:52:14;27.60;75.10
47090;DHT22;32840;52.516;13.294;2023-06-19T14:55:03;27.70;73.20
47090;DHT22;32840;52.516;13.294;2023-06-19T14:57:49;27.60;73.50
47090;DHT22;32840;52.516;13.294;2023-06-19T15:00:37;27.60;74.10
47090;DHT22;32840;52.516;13.294;2023-06-19T15:03:24;27.60;74.20
47090;DHT22;32840;52.516;13.294;2023-06-19T15:06:11;27.60;73.70
47090;DHT22;32840;52.516;13.294;2023-06-19T15:08:56;27.60;73.70
47090;DHT22;32840;52.516;13.294;2023-06-19T15:11:44;27.50;74.20
47090;DHT22;32840;52.516;13.294;2023-06-19T15:14:28;27.40;74.50
47090;DHT22;32840;52.516;13.294;2023-06-19T15:17:20;27.40;74.30
47090;DHT22;32840;52.516;13.294;2023-06-19T15:20:06;27.30;73.40
47090;DHT22;32840;52.516;13.294;2023-06-19T15:22:52;27.40;73.40
47090;DHT22;32840;52.516;13.294;2023-06-19T15:25:43;27.30;72.90
47090;DHT22;32840;52.516;13.294;2023-06-19T15:28:35;27.30;72.70
47090;DHT22;32840;52.516;13.294;2023-06-19T15:31:22;27.30;73.00
47090;DHT22;32840;52.516;13.294;2023-06-19T15:34:07;27.20;73.80
47090;DHT22;32840;52.516;13.294;2023-06-19T15:36:52;27.20;73.70
47090;DHT22;32840;52.516;13.294;2023-06-19T15:39:37;27.20;74.00
47090;DHT22;32840;52.516;13.294;2023-06-19T15:42:21;27.20;74.00
47090;DHT22;32840;52.516;13.294;2023-06-19T15:45:09;27.10;73.10
47090;DHT22;32840;52.516;13.294;2023-06-19T15:47:58;27.10;72.90
47090;DHT22;32840;52.516;13.294;2023-06-19T15:50:46;27.20;72.10
47090;DHT22;32840;52.516;13.294;2023-06-19T15:53:31;27.30;72.30
47090;DHT22;32840;52.516;13.294;2023-06-19T15:56:17;27.40;71.30
47090;DHT22;32840;52.516;13.294;2023-06-19T15:59:02;27.50;68.50
47090;DHT22;32840;52.516;13.294;2023-06-19T16:01:47;27.50;68.70
47090;DHT22;32840;52.516;13.294;2023-06-19T16:04:33;27.50;67.50
47090;DHT22;32840;52.516;13.294;2023-06-19T16:07:17;27.40;66.50
47090;DHT22;32840;52.516;13.294;2023-06-19T16:10:02;27.40;68.00
47090;DHT22;32840;52.516;13.294;2023-06-19T16:12:48;27.40;68.00
47090;DHT22;32840;52.516;13.294;2023-06-19T16:15:34;27.30;67.10
47090;DHT22;32840;52.516;13.294;2023-06-19T16:18:19;27.20;67.40
47090;DHT22;32840;52.516;13.294;2023-06-19T16:21:06;27.20;67.70
47090;DHT22;32840;52.516;13.294;2023-06-19T16:23:51;27.20;68.30
47090;DHT22;32840;52.516;13.294;2023-06-19T16:26:36;27.20;68.90
47090;DHT22;32840;52.516;13.294;2023-06-19T16:29:21;27.10;69.10
47090;DHT22;32840;52.516;13.294;2023-06-19T16:32:06;27.10;69.00
47090;DHT22;32840;52.516;13.294;2023-06-19T16:34:56;27.20;69.00
47090;DHT22;32840;52.516;13.294;2023-06-19T16:37:41;27.30;69.20
47090;DHT22;32840;52.516;13.294;2023-06-19T16:40:27;27.40;68.50
47090;DHT22;32840;52.516;13.294;2023-06-19T16:43:12;27.30;68.30
47090;DHT22;32840;52.516;13.294;2023-06-19T16:45:57;27.30;68.40
47090;DHT22;32840;52.516;13.294;2023-06-19T16:48:42;27.20;68.80
47090;DHT22;32840;52.516;13.294;2023-06-19T16:51:28;27.20;68.50
47090;DHT22;32840;52.516;13.294;2023-06-19T16:54:14;27.10;68.40
47090;DHT22;32840;52.516;13.294;2023-06-19T16:56:59;27.10;68.60
47090;DHT22;32840;52.516;13.294;2023-06-19T16:59:46;27.10;68.60
47090;DHT22;32840;52.516;13.294;2023-06-19T17:02:31;27.00;68.80
47090;DHT22;32840;52.516;13.294;2023-06-19T17:05:17;27.00;68.20
47090;DHT22;32840;52.516;13.294;2023-06-19T17:08:02;27.00;68.00
47090;DHT22;32840;52.516;13.294;2023-06-19T17:10:47;27.00;71.20
47090;DHT22;32840;52.516;13.294;2023-06-19T17:13:32;26.90;71.40
47090;DHT22;32840;52.516;13.294;2023-06-19T17:16:17;26.80;69.10
47090;DHT22;32840;52.516;13.294;2023-06-19T17:19:11;26.80;68.40
47090;DHT22;32840;52.516;13.294;2023-06-19T17:22:06;26.80;69.70
47090;DHT22;32840;52.516;13.294;2023-06-19T17:24:53;26.70;70.10
47090;DHT22;32840;52.516;13.294;2023-06-19T17:27:38;26.60;68.70